Time;durP1;ratioP1;P1;durP2;ratioP2;P2;SDS_P1;SDS_P2;PMS_P1;PMS_P2;Temp;Humidity;BMP_temperature;BMP_pressure;BME280_temperature;BME280_humidity;BME280_pressure;Samples;Min_cycle;Max_cycle;Signal;HPM_P1;HPM_P2
2023/08/23 00:02:22;;;;;;;4.67;2.87;;;;;;;;;;5051850;28;20257;-52
2023/08/23 00:04:49;;;;;;;3.93;3.17;;;;;;;;;;5052241;28;20244;-50
2023/08/23 00:07:15;;;;;;;5.50;3.20;;;;;;;;;;5052848;28;20465;-47
2023/08/23 00:09:42;;;;;;;5.63;3.20;;;;;;;;;;5055107;28;20542;-50
2023/08/23 00:12:08;;;;;;;5.43;2.70;;;;;;;;;;5055048;28;20174;-47
2023/08/23 00:14:35;;;;;;;7.90;3.50;;;;;;;;;;5052760;28;20296;-50
2023/08/23 00:17:01;;;;;;;3.97;3.10;;;;;;;;;;5052781;28;20391;-48
2023/08/23 00:19:27;;;;;;;4.60;3.67;;;;;;;;;;5054087;28;20181;-51
2023/08/23 00:21:53;;;;;;;3.80;3.27;;;;;;;;;;5053276;28;20177;-50
2023/08/23 00:24:20;;;;;;;7.27;5.03;;;;;;;;;;5052002;28;20205;-51
2023/08/23 00:26:47;;;;;;;9.47;4.17;;;;;;;;;;5052512;28;20173;-51
2023/08/23 00:29:13;;;;;;;5.20;4.03;;;;;;;;;;5053019;28;20295;-50
2023/08/23 00:31:39;;;;;;;8.83;5.10;;;;;;;;;;5052843;28;20207;-47
2023/08/23 00:34:05;;;;;;;9.33;5.57;;;;;;;;;;5053244;28;20219;-48
2023/08/23 00:36:31;;;;;;;7.67;5.63;;;;;;;;;;5052307;28;20589;-50
2023/08/23 00:38:57;;;;;;;5.93;4.67;;;;;;;;;;5053580;28;20387;-50
2023/08/23 00:41:23;;;;;;;8.57;5.40;;;;;;;;;;5054144;28;20299;-51
2023/08/23 00:43:50;;;;;;;5.77;5.17;;;;;;;;;;5051266;28;20205;-50
2023/08/23 00:46:16;;;;;;;7.03;5.63;;;;;;;;;;5052996;28;20661;-46
2023/08/23 00:48:43;;;;;;;8.27;6.63;;;;;;;;;;5051421;28;20175;-48
2023/08/23 00:51:10;;;;;;;15.77;7.57;;;;;;;;;;5051839;28;20556;-51
2023/08/23 00:53:37;;;;;;;9.47;6.30;;;;;;;;;;5050580;28;20174;-48
2023/08/23 00:56:04;;;;;;;10.93;7.87;;;;;;;;;;5050606;28;20455;-48
2023/08/23 00:58:30;;;;;;;10.30;7.63;;;;;;;;;;5052628;28;20268;-47
2023/08/23 01:00:57;;;;;;;7.87;6.73;;;;;;;;;;5052322;28;20173;-50
2023/08/23 01:03:23;;;;;;;11.80;7.27;;;;;;;;;;5050329;28;20380;-48
2023/08/23 01:05:58;;;;;;;12.03;6.87;;;;;;;;;;5050245;28;20300;-51
2023/08/23 01:08:27;;;;;;;11.70;6.33;;;;;;;;;;5052622;28;20465;-52
2023/08/23 01:11:12;;;;;;;9.50;5.80;;;;;;;;;;5052191;28;20217;-49
2023/08/23 01:13:41;;;;;;;9.03;5.87;;;;;;;;;;5052137;28;20174;-50
2023/08/23 01:16:09;;;;;;;11.80;6.13;;;;;;;;;;5050823;28;20448;-48
2023/08/23 01:18:35;;;;;;;7.60;5.97;;;;;;;;;;5049832;28;20238;-50
2023/08/23 01:21:03;;;;;;;8.93;7.20;;;;;;;;;;5050981;28;20208;-48
2023/08/23 01:23:31;;;;;;;10.60;6.47;;;;;;;;;;5050630;28;20296;-46
2023/08/23 01:25:56;;;;;;;11.13;7.23;;;;;;;;;;5049816;28;20593;-47
2023/08/23 01:28:22;;;;;;;12.27;7.67;;;;;;;;;;5050065;28;20357;-47
2023/08/23 01:30:50;;;;;;;12.53;7.70;;;;;;;;;;5051168;28;20173;-53
2023/08/23 01:33:26;;;;;;;12.37;7.50;;;;;;;;;;5050989;28;20184;-49
2023/08/23 01:35:56;;;;;;;9.00;6.50;;;;;;;;;;5050806;28;20187;-52
2023/08/23 01:38:23;;;;;;;8.07;5.60;;;;;;;;;;5052131;28;20283;-51
2023/08/23 01:40:49;;;;;;;9.17;6.77;;;;;;;;;;5053365;28;20243;-48
2023/08/23 01:43:15;;;;;;;8.20;6.27;;;;;;;;;;5053945;28;20209;-49
2023/08/23 01:45:41;;;;;;;12.73;6.63;;;;;;;;;;5054097;28;20173;-51
2023/08/23 01:48:07;;;;;;;10.97;6.50;;;;;;;;;;5053662;28;20166;-49
2023/08/23 01:50:33;;;;;;;14.27;7.60;;;;;;;;;;5053340;28;20578;-47
2023/08/23 01:52:59;;;;;;;12.07;7.03;;;;;;;;;;5053342;28;20173;-50
2023/08/23 01:55:27;;;;;;;8.93;6.40;;;;;;;;;;5051838;28;20191;-49
2023/08/23 01:57:53;;;;;;;8.40;6.57;;;;;;;;;;5053352;28;20177;-48
2023/08/23 02:00:19;;;;;;;12.17;8.00;;;;;;;;;;5053187;28;20191;-50
2023/08/23 02:02:45;;;;;;;9.83;6.70;;;;;;;;;;5051833;28;20416;-46
2023/08/23 02:05:11;;;;;;;11.87;6.57;;;;;;;;;;5053553;28;20224;-48
2023/08/23 02:07:37;;;;;;;8.93;7.00;;;;;;;;;;5051919;28;20364;-47
2023/08/23 02:10:04;;;;;;;12.63;7.30;;;;;;;;;;5051931;28;20181;-47
2023/08/23 02:12:30;;;;;;;9.97;6.67;;;;;;;;;;5052959;28;20330;-49
2023/08/23 02:14:56;;;;;;;9.57;7.23;;;;;;;;;;5053317;28;20177;-47
2023/08/23 02:17:23;;;;;;;9.80;6.90;;;;;;;;;;5051875;28;20549;-48
2023/08/23 02:19:48;;;;;;;9.50;7.00;;;;;;;;;;5051918;28;20174;-47
2023/08/23 02:22:15;;;;;;;9.47;6.80;;;;;;;;;;5052336;28;20239;-50
2023/08/23 02:24:41;;;;;;;12.80;6.93;;;;;;;;;;5053247;28;20217;-48
2023/08/23 02:27:07;;;;;;;11.77;7.63;;;;;;;;;;5050312;28;20184;-48
2023/08/23 02:29:33;;;;;;;9.23;7.07;;;;;;;;;;5053555;28;20172;-48
2023/08/23 02:31:59;;;;;;;11.70;7.27;;;;;;;;;;5051970;28;20170;-49
2023/08/23 02:34:25;;;;;;;12.03;7.97;;;;;;;;;;5052827;28;20177;-49
2023/08/23 02:36:51;;;;;;;13.17;8.53;;;;;;;;;;5052059;28;20190;-48
2023/08/23 02:39:18;;;;;;;9.30;7.33;;;;;;;;;;5051197;28;20173;-51
2023/08/23 02:41:45;;;;;;;10.53;7.73;;;;;;;;;;5050662;28;20185;-46
2023/08/23 02:44:11;;;;;;;11.90;7.33;;;;;;;;;;5048566;28;20216;-51
2023/08/23 02:46:37;;;;;;;10.77;6.97;;;;;;;;;;5048889;28;20394;-51
2023/08/23 02:49:04;;;;;;;11.53;7.70;;;;;;;;;;5047943;28;20514;-50
2023/08/23 02:51:29;;;;;;;12.07;7.87;;;;;;;;;;5048504;28;20166;-48
2023/08/23 02:53:56;;;;;;;11.40;8.00;;;;;;;;;;5049265;28;20379;-49
2023/08/23 02:56:23;;;;;;;10.53;7.47;;;;;;;;;;5048940;28;20264;-50
2023/08/23 02:58:49;;;;;;;11.63;8.13;;;;;;;;;;5050106;28;20173;-48
2023/08/23 03:01:16;;;;;;;9.57;7.07;;;;;;;;;;5050753;28;20220;-49
2023/08/23 03:03:42;;;;;;;9.23;6.43;;;;;;;;;;5048667;28;20209;-46
2023/08/23 03:06:08;;;;;;;10.47;7.13;;;;;;;;;;5047934;28;20340;-49
2023/08/23 03:08:34;;;;;;;15.70;8.47;;;;;;;;;;5050362;28;20466;-48
2023/08/23 03:11:05;;;;;;;14.33;8.37;;;;;;;;;;5048766;28;20459;-50
2023/08/23 03:13:31;;;;;;;10.67;8.53;;;;;;;;;;5049939;28;20183;-51
2023/08/23 03:15:57;;;;;;;9.23;7.70;;;;;;;;;;5048001;28;20226;-47
2023/08/23 03:18:24;;;;;;;15.23;8.87;;;;;;;;;;5047491;28;20177;-50
2023/08/23 03:20:50;;;;;;;12.53;8.73;;;;;;;;;;5050927;28;20177;-48
2023/08/23 03:23:20;;;;;;;11.70;8.93;;;;;;;;;;5049488;28;20211;-49
2023/08/23 03:25:47;;;;;;;15.97;9.53;;;;;;;;;;5050977;28;20595;-52
2023/08/23 03:28:13;;;;;;;12.37;8.30;;;;;;;;;;5048892;28;20712;-48
2023/08/23 03:30:40;;;;;;;13.03;8.33;;;;;;;;;;5051789;28;20180;-48
2023/08/23 03:33:06;;;;;;;12.27;7.50;;;;;;;;;;5050152;28;20254;-46
2023/08/23 03:35:33;;;;;;;16.07;8.57;;;;;;;;;;5050132;28;20530;-47
2023/08/23 03:37:59;;;;;;;12.53;7.80;;;;;;;;;;5051087;28;20473;-48
2023/08/23 03:40:25;;;;;;;15.00;8.00;;;;;;;;;;5049926;28;20347;-53
2023/08/23 03:42:51;;;;;;;10.70;6.87;;;;;;;;;;5052535;28;20177;-49
2023/08/23 03:45:18;;;;;;;15.97;8.13;;;;;;;;;;5051057;28;20169;-49
2023/08/23 03:47:44;;;;;;;11.97;8.13;;;;;;;;;;5052388;28;20184;-46
2023/08/23 03:50:11;;;;;;;13.60;7.13;;;;;;;;;;5048737;28;20185;-46
2023/08/23 03:52:37;;;;;;;9.60;6.73;;;;;;;;;;5047348;28;20387;-45
2023/08/23 03:55:03;;;;;;;11.60;6.90;;;;;;;;;;5047090;28;20177;-48
2023/08/23 03:57:29;;;;;;;20.03;7.80;;;;;;;;;;5046451;28;20209;-51
2023/08/23 03:59:55;;;;;;;12.33;7.77;;;;;;;;;;5045635;28;20235;-48
2023/08/23 04:02:21;;;;;;;11.07;6.87;;;;;;;;;;5044971;28;20628;-48
2023/08/23 04:04:48;;;;;;;10.77;6.97;;;;;;;;;;5045509;28;20224;-47
2023/08/23 04:07:15;;;;;;;11.00;6.73;;;;;;;;;;5046452;28;20483;-48
2023/08/23 04:09:41;;;;;;;10.53;6.73;;;;;;;;;;5048686;28;20189;-49
2023/08/23 04:12:07;;;;;;;10.30;6.60;;;;;;;;;;5049469;28;20166;-49
2023/08/23 04:14:35;;;;;;;9.87;6.30;;;;;;;;;;5049008;28;20235;-48
2023/08/23 04:17:01;;;;;;;13.47;6.30;;;;;;;;;;5051320;28;20449;-51
2023/08/23 04:19:27;;;;;;;11.60;6.50;;;;;;;;;;5054494;28;20534;-48
2023/08/23 04:21:53;;;;;;;9.00;6.23;;;;;;;;;;5054727;28;20179;-50
2023/08/23 04:24:21;;;;;;;9.23;6.37;;;;;;;;;;5054607;28;20200;-49
2023/08/23 04:26:47;;;;;;;9.17;5.87;;;;;;;;;;5053834;28;20178;-45
2023/08/23 04:29:14;;;;;;;10.50;6.33;;;;;;;;;;5052432;28;20556;-51
2023/08/23 04:31:40;;;;;;;12.00;6.50;;;;;;;;;;5051996;28;20184;-49
2023/08/23 04:34:06;;;;;;;9.33;5.87;;;;;;;;;;5051253;28;20264;-49
2023/08/23 04:36:33;;;;;;;8.23;5.57;;;;;;;;;;5051569;28;20181;-51
2023/08/23 04:38:59;;;;;;;9.53;5.77;;;;;;;;;;5052560;28;20178;-46
2023/08/23 04:41:25;;;;;;;7.77;5.63;;;;;;;;;;5053367;28;20189;-47
2023/08/23 04:43:51;;;;;;;8.43;5.00;;;;;;;;;;5053732;28;20263;-50
2023/08/23 04:46:17;;;;;;;13.47;5.07;;;;;;;;;;5054139;28;20197;-47
2023/08/23 04:48:44;;;;;;;9.57;5.07;;;;;;;;;;5053496;28;20552;-46
2023/08/23 04:51:12;;;;;;;7.87;4.77;;;;;;;;;;5054450;28;20269;-50
2023/08/23 04:53:39;;;;;;;9.47;4.27;;;;;;;;;;5053561;28;20177;-49
2023/08/23 04:56:04;;;;;;;7.47;4.80;;;;;;;;;;5052686;28;20267;-51
2023/08/23 04:58:31;;;;;;;9.37;4.77;;;;;;;;;;5052694;28;20178;-47
2023/08/23 05:01:04;;;;;;;9.53;5.37;;;;;;;;;;5050530;28;20177;-48
2023/08/23 05:03:30;;;;;;;10.63;4.93;;;;;;;;;;5051751;28;20224;-48
2023/08/23 05:05:56;;;;;;;4.63;4.13;;;;;;;;;;5051082;28;20192;-46
2023/08/23 05:08:22;;;;;;;12.60;5.50;;;;;;;;;;5050015;28;20173;-50
2023/08/23 05:10:52;;;;;;;7.80;4.73;;;;;;;;;;5050256;28;20185;-53
2023/08/23 05:13:18;;;;;;;7.67;4.87;;;;;;;;;;5049537;28;20173;-50
2023/08/23 05:15:45;;;;;;;7.07;4.60;;;;;;;;;;5049227;28;20267;-51
2023/08/23 05:18:12;;;;;;;6.33;4.53;;;;;;;;;;5050214;28;20227;-48
2023/08/23 05:20:38;;;;;;;7.87;4.97;;;;;;;;;;5049888;28;20169;-47
2023/08/23 05:23:04;;;;;;;7.30;4.13;;;;;;;;;;5049085;28;20173;-51
2023/08/23 05:25:30;;;;;;;7.90;4.50;;;;;;;;;;5050765;28;20440;-51
2023/08/23 05:27:57;;;;;;;6.80;4.93;;;;;;;;;;5049115;28;20416;-50
2023/08/23 05:30:23;;;;;;;9.47;4.60;;;;;;;;;;5049064;28;20173;-48
2023/08/23 05:32:49;;;;;;;6.17;4.50;;;;;;;;;;5047382;28;20264;-48
2023/08/23 05:35:15;;;;;;;6.00;3.60;;;;;;;;;;5049680;28;20392;-50
2023/08/23 05:37:41;;;;;;;9.07;5.23;;;;;;;;;;5048557;28;20276;-48
2023/08/23 05:40:08;;;;;;;10.53;4.60;;;;;;;;;;5046544;28;20181;-46
2023/08/23 05:42:34;;;;;;;5.03;3.43;;;;;;;;;;5048408;28;20170;-49
2023/08/23 05:45:01;;;;;;;4.13;3.40;;;;;;;;;;5049257;28;20273;-52
2023/08/23 05:47:28;;;;;;;5.57;3.60;;;;;;;;;;5051723;28;20180;-50
2023/08/23 05:49:54;;;;;;;8.57;4.13;;;;;;;;;;5050633;28;20381;-48
2023/08/23 05:52:21;;;;;;;7.50;4.13;;;;;;;;;;5049859;28;20173;-48
2023/08/23 05:54:47;;;;;;;8.37;3.70;;;;;;;;;;5049892;28;20177;-49
2023/08/23 05:57:13;;;;;;;10.27;4.33;;;;;;;;;;5049629;28;20259;-46
2023/08/23 05:59:39;;;;;;;9.27;3.90;;;;;;;;;;5049998;28;20173;-49
2023/08/23 06:02:05;;;;;;;7.93;3.70;;;;;;;;;;5049029;28;20233;-49
2023/08/23 06:04:32;;;;;;;4.33;3.83;;;;;;;;;;5048859;28;20483;-51
2023/08/23 06:06:58;;;;;;;9.37;4.37;;;;;;;;;;5047496;28;20290;-50
2023/08/23 06:09:24;;;;;;;4.93;3.10;;;;;;;;;;5048800;28;20447;-50
2023/08/23 06:11:50;;;;;;;5.37;3.43;;;;;;;;;;5049547;28;20291;-49
2023/08/23 06:14:23;;;;;;;7.77;3.50;;;;;;;;;;5049031;28;20575;-51
2023/08/23 06:16:50;;;;;;;8.03;3.13;;;;;;;;;;5047788;28;20688;-49
2023/08/23 06:19:16;;;;;;;5.00;2.90;;;;;;;;;;5047177;28;20311;-51
2023/08/23 06:21:42;;;;;;;7.80;3.57;;;;;;;;;;5048956;28;20177;-50
2023/08/23 06:24:09;;;;;;;5.20;3.00;;;;;;;;;;5048777;28;20354;-51
2023/08/23 06:26:35;;;;;;;5.30;3.33;;;;;;;;;;5047585;28;20184;-48
2023/08/23 06:29:01;;;;;;;6.50;3.90;;;;;;;;;;5048876;28;20165;-48
2023/08/23 06:31:27;;;;;;;7.33;4.17;;;;;;;;;;5047804;28;20204;-50
2023/08/23 06:33:53;;;;;;;10.47;4.57;;;;;;;;;;5049596;28;20230;-49
2023/08/23 06:36:19;;;;;;;6.77;3.33;;;;;;;;;;5046099;28;20173;-50
2023/08/23 06:38:46;;;;;;;5.53;3.67;;;;;;;;;;5044188;28;20666;-49
2023/08/23 06:41:12;;;;;;;5.73;3.50;;;;;;;;;;5042696;28;20177;-47
2023/08/23 06:43:38;;;;;;;6.30;3.40;;;;;;;;;;5045011;28;20322;-50
2023/08/23 06:46:05;;;;;;;7.50;3.60;;;;;;;;;;5043388;28;20199;-49
2023/08/23 06:48:31;;;;;;;4.70;2.83;;;;;;;;;;5042556;28;20520;-51
2023/08/23 06:51:01;;;;;;;5.30;2.63;;;;;;;;;;5042614;28;20600;-50
2023/08/23 06:53:27;;;;;;;5.50;2.60;;;;;;;;;;5043340;28;20173;-49
2023/08/23 06:55:54;;;;;;;5.43;3.47;;;;;;;;;;5045689;28;20180;-49
2023/08/23 06:58:20;;;;;;;8.10;3.27;;;;;;;;;;5044512;28;20181;-46
2023/08/23 07:00:46;;;;;;;5.13;2.40;;;;;;;;;;5044563;28;20172;-49
2023/08/23 07:03:12;;;;;;;9.23;3.03;;;;;;;;;;5044894;28;20416;-52
2023/08/23 07:05:38;;;;;;;6.07;3.40;;;;;;;;;;5045967;28;20209;-51
2023/08/23 07:08:05;;;;;;;4.03;2.33;;;;;;;;;;5048963;28;20192;-46
2023/08/23 07:10:31;;;;;;;6.13;2.80;;;;;;;;;;5049216;28;20534;-51
2023/08/23 07:12:57;;;;;;;3.47;2.57;;;;;;;;;;5047009;28;20474;-47
2023/08/23 07:15:24;;;;;;;5.80;2.87;;;;;;;;;;5044054;28;20169;-52
2023/08/23 07:17:50;;;;;;;5.50;2.67;;;;;;;;;;5044580;28;20204;-48
2023/08/23 07:20:16;;;;;;;4.10;2.47;;;;;;;;;;5041360;28;20169;-50
2023/08/23 07:22:43;;;;;;;3.10;1.63;;;;;;;;;;5041293;28;20166;-48
2023/08/23 07:25:09;;;;;;;3.67;2.27;;;;;;;;;;5039376;28;20332;-52
2023/08/23 07:27:36;;;;;;;3.00;2.20;;;;;;;;;;5041651;28;20176;-49
2023/08/23 07:30:03;;;;;;;7.97;2.60;;;;;;;;;;5040868;28;20169;-47
2023/08/23 07:32:32;;;;;;;4.43;2.20;;;;;;;;;;5040626;28;20256;-49
2023/08/23 07:35:00;;;;;;;4.93;2.00;;;;;;;;;;5041687;28;20177;-48
2023/08/23 07:37:26;;;;;;;4.30;2.20;;;;;;;;;;5040868;28;20173;-51
2023/08/23 07:39:52;;;;;;;5.50;2.03;;;;;;;;;;5041019;28;20218;-49
2023/08/23 07:42:18;;;;;;;4.47;2.37;;;;;;;;;;5043726;28;20205;-47
2023/08/23 07:44:44;;;;;;;5.47;2.67;;;;;;;;;;5047900;28;20255;-50
2023/08/23 07:47:10;;;;;;;5.67;2.50;;;;;;;;;;5047261;28;20511;-50
2023/08/23 07:49:39;;;;;;;3.20;2.37;;;;;;;;;;5039946;28;20690;-47
2023/08/23 07:52:05;;;;;;;6.20;2.13;;;;;;;;;;5049047;28;20174;-49
2023/08/23 07:54:31;;;;;;;3.13;1.67;;;;;;;;;;5052381;28;20205;-54
2023/08/23 07:56:57;;;;;;;3.40;1.90;;;;;;;;;;5052247;28;20191;-52
2023/08/23 07:59:23;;;;;;;2.73;1.83;;;;;;;;;;5051726;28;20578;-50
2023/08/23 08:01:49;;;;;;;4.53;2.10;;;;;;;;;;5051928;28;20221;-53
2023/08/23 08:04:15;;;;;;;3.93;1.87;;;;;;;;;;5051787;28;20690;-52
2023/08/23 08:06:42;;;;;;;3.50;1.90;;;;;;;;;;5052315;28;20184;-52
2023/08/23 08:09:08;;;;;;;3.23;1.73;;;;;;;;;;5053559;28;20616;-47
2023/08/23 08:11:34;;;;;;;4.63;2.23;;;;;;;;;;5052835;28;20180;-48
2023/08/23 08:14:00;;;;;;;2.50;1.53;;;;;;;;;;5053026;28;20173;-51
2023/08/23 08:16:26;;;;;;;2.97;1.70;;;;;;;;;;5053722;28;20181;-49
2023/08/23 08:18:52;;;;;;;2.90;1.90;;;;;;;;;;5053226;28;20174;-50
2023/08/23 08:21:19;;;;;;;3.47;1.80;;;;;;;;;;5052837;28;20173;-48
2023/08/23 08:23:48;;;;;;;3.87;2.17;;;;;;;;;;5050978;28;20490;-52
2023/08/23 08:26:14;;;;;;;3.73;1.70;;;;;;;;;;5051976;28;20185;-52
2023/08/23 08:28:43;;;;;;;3.50;1.60;;;;;;;;;;5050684;28;20169;-51
2023/08/23 08:31:11;;;;;;;3.37;1.50;;;;;;;;;;5049147;28;20241;-51
2023/08/23 08:33:38;;;;;;;3.97;1.60;;;;;;;;;;5048954;28;20187;-54
2023/08/23 08:36:04;;;;;;;4.37;1.87;;;;;;;;;;5047350;28;20177;-52
2023/08/23 08:38:30;;;;;;;1.67;1.57;;;;;;;;;;5050101;28;20189;-53
2023/08/23 08:40:56;;;;;;;8.83;1.70;;;;;;;;;;5049927;28;20185;-50
2023/08/23 08:43:22;;;;;;;2.13;1.30;;;;;;;;;;5050122;28;20193;-50
2023/08/23 08:45:48;;;;;;;3.93;1.83;;;;;;;;;;5051195;28;20235;-52
2023/08/23 08:48:15;;;;;;;1.60;1.30;;;;;;;;;;5052612;28;20511;-48
2023/08/23 08:50:45;;;;;;;3.43;2.20;;;;;;;;;;5051484;28;20181;-52
2023/08/23 08:53:15;;;;;;;3.83;1.93;;;;;;;;;;5052933;28;20195;-49
2023/08/23 08:55:42;;;;;;;2.97;1.93;;;;;;;;;;5052763;28;20177;-50
2023/08/23 08:58:08;;;;;;;3.80;1.60;;;;;;;;;;5051884;28;20915;-51
2023/08/23 09:00:35;;;;;;;3.60;1.50;;;;;;;;;;5051426;28;20219;-49
2023/08/23 09:03:01;;;;;;;5.60;2.00;;;;;;;;;;5050981;28;20275;-53
2023/08/23 09:05:27;;;;;;;2.40;1.30;;;;;;;;;;5047615;28;20464;-47
2023/08/23 09:07:56;;;;;;;2.20;1.60;;;;;;;;;;5049327;28;20220;-50
2023/08/23 09:10:22;;;;;;;3.70;1.70;;;;;;;;;;5050122;28;20177;-48
2023/08/23 09:12:48;;;;;;;3.13;1.50;;;;;;;;;;5049097;28;20268;-50
2023/08/23 09:15:19;;;;;;;1.90;1.57;;;;;;;;;;5049494;28;20173;-47
2023/08/23 09:17:45;;;;;;;3.97;1.40;;;;;;;;;;5048093;28;20614;-48
2023/08/23 09:20:11;;;;;;;5.93;1.60;;;;;;;;;;5046673;28;20169;-47
2023/08/23 09:22:38;;;;;;;3.63;1.57;;;;;;;;;;5044827;28;20178;-52
2023/08/23 09:25:05;;;;;;;2.87;1.20;;;;;;;;;;5042358;28;20320;-48
2023/08/23 09:27:31;;;;;;;3.83;1.60;;;;;;;;;;5038103;28;20170;-54
2023/08/23 09:29:58;;;;;;;2.63;1.30;;;;;;;;;;5038152;28;20183;-50
2023/08/23 09:32:28;;;;;;;3.43;1.40;;;;;;;;;;5040093;28;20825;-52
2023/08/23 09:34:54;;;;;;;2.10;1.20;;;;;;;;;;5042043;28;20310;-51
2023/08/23 09:37:20;;;;;;;2.93;1.30;;;;;;;;;;5043500;28;20173;-48
2023/08/23 09:39:46;;;;;;;3.70;1.47;;;;;;;;;;5045892;28;20217;-50
2023/08/23 09:42:14;;;;;;;4.33;1.37;;;;;;;;;;5048938;28;20170;-49
2023/08/23 09:44:41;;;;;;;2.00;1.17;;;;;;;;;;5048857;28;20201;-50
2023/08/23 09:47:10;;;;;;;3.80;1.03;;;;;;;;;;5049669;28;20173;-50
2023/08/23 09:49:38;;;;;;;1.63;0.83;;;;;;;;;;5048493;28;20260;-52
2023/08/23 09:52:06;;;;;;;1.77;1.10;;;;;;;;;;5048748;28;20178;-52
2023/08/23 09:54:34;;;;;;;1.67;1.20;;;;;;;;;;5047566;28;20173;-49
2023/08/23 09:57:01;;;;;;;2.67;1.30;;;;;;;;;;5046805;28;20174;-48
2023/08/23 09:59:27;;;;;;;3.77;1.10;;;;;;;;;;5044496;28;20268;-51
2023/08/23 10:01:54;;;;;;;3.27;1.30;;;;;;;;;;5046682;28;20547;-53
2023/08/23 10:04:21;;;;;;;4.43;1.23;;;;;;;;;;5049015;28;20209;-50
2023/08/23 10:06:48;;;;;;;3.90;1.63;;;;;;;;;;5047991;28;20211;-50
2023/08/23 10:09:16;;;;;;;1.20;1.10;;;;;;;;;;5046148;28;20178;-49
2023/08/23 10:11:43;;;;;;;1.50;1.00;;;;;;;;;;5046242;28;20268;-49
2023/08/23 10:14:09;;;;;;;1.37;1.00;;;;;;;;;;5045281;28;20537;-52
2023/08/23 10:16:36;;;;;;;1.27;0.90;;;;;;;;;;5044959;28;20260;-47
2023/08/23 10:19:05;;;;;;;3.37;1.30;;;;;;;;;;5044216;28;20920;-46
2023/08/23 10:21:32;;;;;;;1.10;0.83;;;;;;;;;;5044824;28;20188;-48
2023/08/23 10:24:02;;;;;;;1.13;0.80;;;;;;;;;;5045771;28;20654;-49
2023/08/23 10:26:29;;;;;;;6.07;1.23;;;;;;;;;;5047079;28;20181;-48
2023/08/23 10:28:55;;;;;;;1.13;0.77;;;;;;;;;;5046361;28;20169;-49
2023/08/23 10:31:22;;;;;;;1.33;0.97;;;;;;;;;;5047276;28;20165;-47
2023/08/23 10:33:54;;;;;;;1.93;0.87;;;;;;;;;;5048771;28;20532;-54
2023/08/23 10:36:30;;;;;;;1.23;0.90;;;;;;;;;;5046976;28;20180;-51
2023/08/23 10:38:56;;;;;;;2.20;0.90;;;;;;;;;;5046356;28;20520;-48
2023/08/23 10:41:23;;;;;;;2.00;0.97;;;;;;;;;;5048445;28;20177;-48
2023/08/23 10:43:50;;;;;;;3.17;1.20;;;;;;;;;;5047488;28;20252;-50
2023/08/23 10:46:21;;;;;;;1.10;0.83;;;;;;;;;;5048633;28;20744;-50
2023/08/23 10:48:48;;;;;;;3.73;1.20;;;;;;;;;;5048658;28;20176;-47
2023/08/23 10:51:14;;;;;;;3.93;1.03;;;;;;;;;;5047526;28;20235;-47
2023/08/23 10:53:46;;;;;;;2.00;1.10;;;;;;;;;;5051001;28;20313;-50
2023/08/23 10:56:12;;;;;;;2.87;0.90;;;;;;;;;;5049355;28;20254;-52
2023/08/23 10:58:38;;;;;;;1.73;1.00;;;;;;;;;;5048295;28;20173;-48
2023/08/23 11:01:05;;;;;;;2.17;1.00;;;;;;;;;;5047401;28;20173;-48
2023/08/23 11:03:32;;;;;;;3.13;1.00;;;;;;;;;;5047314;28;20204;-46
2023/08/23 11:05:58;;;;;;;1.00;0.80;;;;;;;;;;5048500;28;20169;-48
2023/08/23 11:08:25;;;;;;;2.90;1.27;;;;;;;;;;5045916;28;20165;-49
2023/08/23 11:10:51;;;;;;;1.37;0.80;;;;;;;;;;5046720;28;20192;-49
2023/08/23 11:13:17;;;;;;;2.50;1.03;;;;;;;;;;5048524;28;20173;-46
2023/08/23 11:15:43;;;;;;;1.07;0.70;;;;;;;;;;5049560;28;20166;-47
2023/08/23 11:18:11;;;;;;;1.80;1.00;;;;;;;;;;5046477;28;20460;-48
2023/08/23 11:20:38;;;;;;;2.97;0.80;;;;;;;;;;5045785;28;20174;-49
2023/08/23 11:23:04;;;;;;;5.22;1.60;;;;;;;;;;5041781;28;20258;-48
2023/08/23 11:25:30;;;;;;;1.77;0.82;;;;;;;;;;5043317;28;20173;-50
2023/08/23 11:27:57;;;;;;;1.95;1.10;;;;;;;;;;5041700;28;20166;-48
2023/08/23 11:30:23;;;;;;;2.58;0.75;;;;;;;;;;5044673;28;20173;-49
2023/08/23 11:32:50;;;;;;;0.93;0.80;;;;;;;;;;5045372;28;20165;-45
2023/08/23 11:35:17;;;;;;;1.88;1.17;;;;;;;;;;5045448;28;20192;-45
2023/08/23 11:37:43;;;;;;;2.40;0.98;;;;;;;;;;5045775;28;20231;-51
2023/08/23 11:40:12;;;;;;;2.78;1.10;;;;;;;;;;5045616;28;20286;-47
2023/08/23 11:42:39;;;;;;;1.30;1.17;;;;;;;;;;5043392;28;20200;-52
2023/08/23 11:45:05;;;;;;;2.20;1.27;;;;;;;;;;5044488;28;20537;-51
2023/08/23 11:47:32;;;;;;;2.00;1.15;;;;;;;;;;5045446;28;20271;-50
2023/08/23 11:49:58;;;;;;;2.75;0.75;;;;;;;;;;5041988;28;20276;-51
2023/08/23 11:52:24;;;;;;;1.20;1.10;;;;;;;;;;5043767;28;20193;-51
2023/08/23 11:54:52;;;;;;;1.55;0.93;;;;;;;;;;5043112;28;20186;-52
2023/08/23 11:57:19;;;;;;;2.42;1.00;;;;;;;;;;5043185;28;20199;-51
2023/08/23 11:59:45;;;;;;;2.00;1.20;;;;;;;;;;5045499;28;20534;-48
2023/08/23 12:02:12;;;;;;;2.03;1.17;;;;;;;;;;5045421;28;20217;-49
2023/08/23 12:04:42;;;;;;;2.35;1.20;;;;;;;;;;5047738;28;20304;-53
2023/08/23 12:07:09;;;;;;;1.25;1.15;;;;;;;;;;5047424;28;20252;-47
2023/08/23 12:09:35;;;;;;;2.03;1.30;;;;;;;;;;5042815;28;20176;-46
2023/08/23 12:12:03;;;;;;;2.42;1.25;;;;;;;;;;5040546;28;20193;-48
2023/08/23 12:14:29;;;;;;;2.25;1.13;;;;;;;;;;5039690;28;20183;-51
2023/08/23 12:16:56;;;;;;;1.33;0.90;;;;;;;;;;5040015;28;20162;-50
2023/08/23 12:19:22;;;;;;;1.20;0.98;;;;;;;;;;5039235;28;20166;-51
2023/08/23 12:21:49;;;;;;;3.25;1.08;;;;;;;;;;5040272;28;20165;-48
2023/08/23 12:24:16;;;;;;;1.98;1.00;;;;;;;;;;5039220;28;20201;-47
2023/08/23 12:26:42;;;;;;;2.75;1.13;;;;;;;;;;5038264;28;20185;-48
2023/08/23 12:29:08;;;;;;;2.42;1.17;;;;;;;;;;5038616;28;20162;-49
2023/08/23 12:31:34;;;;;;;3.63;1.25;;;;;;;;;;5039529;28;20184;-54
2023/08/23 12:34:01;;;;;;;4.07;1.10;;;;;;;;;;5037962;28;20703;-50
2023/08/23 12:36:27;;;;;;;2.20;1.38;;;;;;;;;;5037353;28;20535;-46
2023/08/23 12:38:53;;;;;;;2.47;1.00;;;;;;;;;;5038628;28;20383;-47
2023/08/23 12:41:19;;;;;;;1.27;0.80;;;;;;;;;;5044912;28;20401;-46
2023/08/23 12:43:46;;;;;;;1.85;1.00;;;;;;;;;;5041910;28;20207;-48
2023/08/23 12:46:12;;;;;;;2.95;1.17;;;;;;;;;;5041937;28;20322;-47
2023/08/23 12:48:39;;;;;;;1.55;0.80;;;;;;;;;;5043574;28;20166;-46
2023/08/23 12:51:04;;;;;;;1.50;0.80;;;;;;;;;;5044036;28;20173;-47
2023/08/23 12:53:30;;;;;;;0.88;0.82;;;;;;;;;;5043714;28;20179;-46
2023/08/23 12:55:56;;;;;;;1.65;0.93;;;;;;;;;;5041968;28;20189;-50
2023/08/23 12:58:22;;;;;;;10.20;1.38;;;;;;;;;;5041118;28;20195;-46
2023/08/23 13:00:49;;;;;;;1.38;1.00;;;;;;;;;;5042170;28;20405;-50
2023/08/23 13:03:15;;;;;;;1.88;0.98;;;;;;;;;;5041471;28;20400;-47
2023/08/23 13:05:41;;;;;;;1.15;0.80;;;;;;;;;;5041401;28;20578;-45
2023/08/23 13:08:07;;;;;;;2.15;1.10;;;;;;;;;;5039992;28;20161;-47
2023/08/23 13:10:33;;;;;;;2.33;1.50;;;;;;;;;;5039347;28;20173;-46
2023/08/23 13:13:00;;;;;;;1.10;1.00;;;;;;;;;;5041465;28;20162;-49
2023/08/23 13:15:26;;;;;;;1.38;0.80;;;;;;;;;;5044727;28;20177;-48
2023/08/23 13:17:55;;;;;;;1.25;0.85;;;;;;;;;;5044395;28;20487;-47
2023/08/23 13:20:21;;;;;;;1.10;1.00;;;;;;;;;;5028978;28;20268;-47
2023/08/23 13:22:48;;;;;;;1.13;1.00;;;;;;;;;;5046616;28;20243;-50
2023/08/23 13:25:14;;;;;;;1.20;1.10;;;;;;;;;;5044776;28;20609;-45
2023/08/23 13:27:40;;;;;;;2.00;1.13;;;;;;;;;;5044798;28;20180;-50
2023/08/23 13:30:08;;;;;;;1.50;1.00;;;;;;;;;;5044384;28;20169;-47
2023/08/23 13:32:34;;;;;;;2.28;1.13;;;;;;;;;;5042052;28;20220;-49
2023/08/23 13:35:00;;;;;;;1.25;1.00;;;;;;;;;;5043706;28;20177;-47
2023/08/23 13:37:26;;;;;;;1.70;1.10;;;;;;;;;;5042865;28;20645;-50
2023/08/23 13:39:52;;;;;;;1.35;1.20;;;;;;;;;;5041822;28;20178;-47
2023/08/23 13:42:19;;;;;;;10.10;1.20;;;;;;;;;;5039540;28;20245;-47
2023/08/23 13:44:45;;;;;;;2.00;1.10;;;;;;;;;;5041651;28;20276;-47
2023/08/23 13:47:11;;;;;;;1.55;1.10;;;;;;;;;;5041376;28;20529;-50
2023/08/23 13:49:37;;;;;;;1.08;0.98;;;;;;;;;;5040390;28;20487;-47
2023/08/23 13:52:03;;;;;;;3.28;1.20;;;;;;;;;;5041068;28;20257;-51
2023/08/23 13:54:29;;;;;;;1.38;1.10;;;;;;;;;;5041002;28;20243;-45
2023/08/23 13:56:55;;;;;;;2.97;1.60;;;;;;;;;;5042527;28;20961;-47
2023/08/23 13:59:21;;;;;;;1.50;1.20;;;;;;;;;;5045434;28;20414;-50
2023/08/23 14:01:47;;;;;;;1.73;1.20;;;;;;;;;;5046127;28;20295;-45
2023/08/23 14:04:13;;;;;;;2.22;1.02;;;;;;;;;;5044078;28;20237;-49
2023/08/23 14:06:39;;;;;;;1.35;1.23;;;;;;;;;;5043777;28;20180;-46
2023/08/23 14:09:05;;;;;;;2.78;1.48;;;;;;;;;;5043437;28;20174;-48
2023/08/23 14:11:36;;;;;;;1.88;1.30;;;;;;;;;;5043389;28;20184;-49
2023/08/23 14:14:02;;;;;;;1.73;1.25;;;;;;;;;;5043110;28;20231;-48
2023/08/23 14:16:28;;;;;;;1.48;1.20;;;;;;;;;;5042862;28;20399;-49
2023/08/23 14:18:54;;;;;;;1.10;1.00;;;;;;;;;;5040585;28;20472;-50
2023/08/23 14:21:20;;;;;;;2.65;0.90;;;;;;;;;;5038385;28;20561;-45
2023/08/23 14:23:46;;;;;;;1.20;1.10;;;;;;;;;;5039156;28;20200;-51
2023/08/23 14:26:12;;;;;;;2.35;1.38;;;;;;;;;;5041897;28;20694;-50
2023/08/23 14:28:39;;;;;;;1.50;1.23;;;;;;;;;;5038224;28;20553;-48
2023/08/23 14:31:05;;;;;;;2.45;1.48;;;;;;;;;;5038852;28;20161;-50
2023/08/23 14:33:31;;;;;;;1.58;1.08;;;;;;;;;;5038307;28;20451;-48
2023/08/23 14:35:57;;;;;;;2.05;1.20;;;;;;;;;;5038519;28;20541;-50
2023/08/23 14:38:23;;;;;;;6.78;1.27;;;;;;;;;;5038988;28;20170;-46